createdAt,value
2017-01-17T00:00:14.789Z,1021.29
2017-01-17T00:01:14.750Z,1021.31
2017-01-17T00:02:14.780Z,1021.32
2017-01-17T00:03:14.795Z,1021.32
2017-01-17T00:04:15.007Z,1021.32
2017-01-17T00:05:14.730Z,1021.28
2017-01-17T00:06:14.680Z,1021.31
2017-01-17T00:07:14.883Z,1021.37
2017-01-17T00:08:14.694Z,1021.39
2017-01-17T00:09:14.953Z,1021.36
2017-01-17T00:10:15.093Z,1021.39
2017-01-17T00:11:14.701Z,1021.4
2017-01-17T00:12:15.042Z,1021.38
2017-01-17T00:13:14.661Z,1021.44
2017-01-17T00:14:14.646Z,1021.36
2017-01-17T00:15:14.662Z,1021.36
2017-01-17T00:16:14.858Z,1021.41
2017-01-17T00:17:14.868Z,1021.44
2017-01-17T00:18:14.813Z,1021.43
2017-01-17T00:19:14.787Z,1021.48
2017-01-17T00:20:14.944Z,1021.47
2017-01-17T00:21:14.790Z,1021.48
2017-01-17T00:22:14.775Z,1021.47
2017-01-17T00:23:14.863Z,1021.5
2017-01-17T00:24:15.121Z,1021.5
2017-01-17T00:25:14.937Z,1021.48
2017-01-17T00:26:14.882Z,1021.48
2017-01-17T00:27:14.886Z,1021.5
2017-01-17T00:28:14.771Z,1021.51
2017-01-17T00:29:14.800Z,1021.51
2017-01-17T00:30:14.894Z,1021.52
2017-01-17T00:31:14.829Z,1021.52
2017-01-17T00:32:15.267Z,1021.5
2017-01-17T00:33:14.844Z,1021.52
2017-01-17T00:34:14.888Z,1021.51
2017-01-17T00:35:14.967Z,1021.53
2017-01-17T00:36:14.967Z,1021.52
2017-01-17T00:37:14.988Z,1021.52
2017-01-17T00:38:15.616Z,1021.56
2017-01-17T00:39:15.119Z,1021.54
2017-01-17T00:40:15.165Z,1021.53
2017-01-17T00:41:15.160Z,1021.51
2017-01-17T00:42:14.966Z,1021.52
2017-01-17T00:43:15.168Z,1021.47
2017-01-17T00:44:15.497Z,1021.55
2017-01-17T00:45:15.159Z,1021.57
2017-01-17T00:46:15.147Z,1021.6
2017-01-17T00:47:15.100Z,1021.58
2017-01-17T00:48:15.313Z,1021.64
2017-01-17T00:49:15.045Z,1021.59
2017-01-17T00:50:15.215Z,1021.62
2017-01-17T00:51:15.511Z,1021.66
2017-01-17T00:52:15.460Z,1021.69
2017-01-17T00:53:15.193Z,1021.69
2017-01-17T00:54:15.233Z,1021.7
2017-01-17T00:55:15.328Z,1021.72
2017-01-17T00:56:15.264Z,1021.7
2017-01-17T00:57:15.266Z,1021.71
2017-01-17T00:58:15.172Z,1021.76
2017-01-17T00:59:15.099Z,1021.7
2017-01-17T01:00:15.120Z,1021.7
2017-01-17T01:01:15.286Z,1021.74
2017-01-17T01:02:15.518Z,1021.7
2017-01-17T01:03:15.712Z,1021.71
2017-01-17T01:04:15.295Z,1021.73
2017-01-17T01:05:15.379Z,1021.76
2017-01-17T01:06:15.359Z,1021.72
2017-01-17T01:07:15.386Z,1021.73
2017-01-17T01:08:15.320Z,1021.72
2017-01-17T01:09:15.386Z,1021.76
2017-01-17T01:10:15.522Z,1021.71
2017-01-17T01:11:15.298Z,1021.73
2017-01-17T01:12:15.460Z,1021.74
2017-01-17T01:13:15.410Z,1021.77
2017-01-17T01:14:15.450Z,1021.76
2017-01-17T01:15:15.423Z,1021.75
2017-01-17T01:16:15.687Z,1021.79
2017-01-17T01:17:15.420Z,1021.83
2017-01-17T01:18:15.402Z,1021.82
2017-01-17T01:19:15.382Z,1021.83
2017-01-17T01:20:15.345Z,1021.82
2017-01-17T01:21:15.403Z,1021.84
2017-01-17T01:22:15.520Z,1021.84
2017-01-17T01:23:15.656Z,1021.84
2017-01-17T01:24:16.019Z,1021.81
2017-01-17T01:25:15.601Z,1021.81
2017-01-17T01:26:15.533Z,1021.83
2017-01-17T01:27:15.748Z,1021.81
2017-01-17T01:28:15.600Z,1021.8
2017-01-17T01:29:15.570Z,1021.8
2017-01-17T01:30:15.532Z,1021.78
2017-01-17T01:31:15.631Z,1021.83
2017-01-17T01:32:15.791Z,1021.84
2017-01-17T01:33:15.895Z,1021.86
2017-01-17T01:34:15.839Z,1021.85
2017-01-17T01:35:15.744Z,1021.84
2017-01-17T01:36:15.721Z,1021.86
2017-01-17T01:37:15.947Z,1021.87
2017-01-17T01:38:15.807Z,1021.9
2017-01-17T01:39:15.902Z,1021.86
2017-01-17T01:40:15.877Z,1021.86
2017-01-17T01:41:15.783Z,1021.85
2017-01-17T01:42:15.940Z,1021.89
2017-01-17T01:43:15.848Z,1021.83
2017-01-17T01:44:15.669Z,1021.88
2017-01-17T01:45:15.697Z,1021.86
2017-01-17T01:46:15.909Z,1021.82
2017-01-17T01:47:15.815Z,1021.87
2017-01-17T01:48:15.723Z,1021.85
2017-01-17T01:49:15.839Z,1021.81
2017-01-17T01:50:15.615Z,1021.82
2017-01-17T01:51:15.608Z,1021.84
2017-01-17T01:52:15.816Z,1021.88
2017-01-17T01:53:16.054Z,1021.87
2017-01-17T01:54:16.042Z,1021.91
2017-01-17T01:55:15.959Z,1021.91
2017-01-17T01:56:16.362Z,1021.87
2017-01-17T01:57:15.680Z,1021.82
2017-01-17T01:58:15.818Z,1021.83
2017-01-17T01:59:16.142Z,1021.83
2017-01-17T02:00:16.077Z,1021.85
2017-01-17T02:01:15.875Z,1021.86
2017-01-17T02:02:15.768Z,1021.89
2017-01-17T02:03:15.813Z,1021.9
2017-01-17T02:04:15.896Z,1021.9
2017-01-17T02:05:15.956Z,1021.9
2017-01-17T02:06:16.047Z,1021.91
2017-01-17T02:07:15.876Z,1021.9
2017-01-17T02:08:15.896Z,1021.92
2017-01-17T02:09:15.891Z,1021.93
2017-01-17T02:10:16.053Z,1021.96
2017-01-17T02:11:16.073Z,1021.93
2017-01-17T02:12:15.954Z,1021.97
2017-01-17T02:13:16.130Z,1021.94
2017-01-17T02:14:16.316Z,1021.94
2017-01-17T02:15:16.482Z,1021.91
2017-01-17T02:16:16.319Z,1021.93
2017-01-17T02:17:16.082Z,1021.87
2017-01-17T02:18:15.966Z,1021.94
2017-01-17T02:19:16.055Z,1021.89
2017-01-17T02:20:16.151Z,1021.91
2017-01-17T02:21:16.422Z,1021.97
2017-01-17T02:22:16.283Z,1021.93
2017-01-17T02:23:16.037Z,1021.94
2017-01-17T02:24:16.486Z,1021.93
2017-01-17T02:25:16.149Z,1021.91
2017-01-17T02:26:16.340Z,1021.92
2017-01-17T02:27:16.081Z,1021.91
2017-01-17T02:28:16.078Z,1021.98
2017-01-17T02:29:16.981Z,1021.98
2017-01-17T02:30:16.175Z,1021.96
2017-01-17T02:31:16.175Z,1021.99
2017-01-17T02:32:16.294Z,1022.03
2017-01-17T02:33:16.302Z,1022.02
2017-01-17T02:34:16.281Z,1022.06
2017-01-17T02:35:16.620Z,1022.08
2017-01-17T02:36:16.123Z,1022.01
2017-01-17T02:37:16.216Z,1022.05
2017-01-17T02:38:16.320Z,1022.01
2017-01-17T02:39:16.350Z,1021.98
2017-01-17T02:40:16.153Z,1022.03
2017-01-17T02:41:16.244Z,1022.06
2017-01-17T02:42:16.281Z,1022.1
2017-01-17T02:43:16.249Z,1022.06
2017-01-17T02:44:16.204Z,1022.1
2017-01-17T02:45:16.368Z,1022.07
2017-01-17T02:46:16.486Z,1022.08
2017-01-17T02:47:16.408Z,1022.07
2017-01-17T02:48:16.307Z,1022.1
2017-01-17T02:49:16.430Z,1022.09
2017-01-17T02:50:16.669Z,1022.08
2017-01-17T02:51:16.378Z,1022.11
2017-01-17T02:52:16.796Z,1022.14
2017-01-17T02:53:16.356Z,1022.14
2017-01-17T02:54:16.393Z,1022.15
2017-01-17T02:55:16.274Z,1022.2
2017-01-17T02:56:16.578Z,1022.22
2017-01-17T02:57:16.326Z,1022.29
2017-01-17T02:58:16.649Z,1022.31
2017-01-17T02:59:16.352Z,1022.31
2017-01-17T03:00:16.496Z,1022.35
2017-01-17T03:01:16.618Z,1022.33
2017-01-17T03:02:16.485Z,1022.34
2017-01-17T03:03:16.619Z,1022.35
2017-01-17T03:04:16.392Z,1022.39
2017-01-17T03:05:16.653Z,1022.39
2017-01-17T03:06:16.580Z,1022.39
2017-01-17T03:07:16.573Z,1022.36
2017-01-17T03:08:16.646Z,1022.38
2017-01-17T03:09:16.572Z,1022.38
2017-01-17T03:10:16.571Z,1022.37
2017-01-17T03:11:16.632Z,1022.36
2017-01-17T03:12:16.897Z,1022.39
2017-01-17T03:13:16.995Z,1022.38
2017-01-17T03:14:16.912Z,1022.4
2017-01-17T03:15:16.768Z,1022.42
2017-01-17T03:16:16.675Z,1022.42
2017-01-17T03:17:16.544Z,1022.47
2017-01-17T03:18:16.664Z,1022.48
2017-01-17T03:19:16.707Z,1022.53
2017-01-17T03:20:16.956Z,1022.54
2017-01-17T03:21:16.608Z,1022.52
2017-01-17T03:22:16.687Z,1022.57
2017-01-17T03:23:16.603Z,1022.57
2017-01-17T03:24:16.658Z,1022.58
2017-01-17T03:25:16.651Z,1022.59
2017-01-17T03:26:16.639Z,1022.57
2017-01-17T03:27:16.816Z,1022.63
2017-01-17T03:28:17.009Z,1022.65
2017-01-17T03:29:17.122Z,1022.67
2017-01-17T03:30:16.783Z,1022.68
2017-01-17T03:31:16.765Z,1022.68
2017-01-17T03:32:16.815Z,1022.7
2017-01-17T03:33:16.786Z,1022.67
2017-01-17T03:34:16.780Z,1022.66
2017-01-17T03:35:16.675Z,1022.74
2017-01-17T03:36:16.723Z,1022.76
2017-01-17T03:37:17.203Z,1022.73
2017-01-17T03:38:16.901Z,1022.78
2017-01-17T03:39:16.983Z,1022.73
2017-01-17T03:40:17.035Z,1022.76
2017-01-17T03:41:17.063Z,1022.76
2017-01-17T03:42:17.006Z,1022.73
2017-01-17T03:43:16.910Z,1022.75
2017-01-17T03:44:17.221Z,1022.74
2017-01-17T03:45:16.854Z,1022.76
2017-01-17T03:46:16.981Z,1022.79
2017-01-17T03:47:16.981Z,1022.78
2017-01-17T03:48:17.160Z,1022.79
2017-01-17T03:49:16.944Z,1022.74
2017-01-17T03:50:17.608Z,1022.8
2017-01-17T03:51:16.857Z,1022.78
2017-01-17T03:52:17.026Z,1022.79
2017-01-17T03:53:17.193Z,1022.79
2017-01-17T03:54:17.022Z,1022.77
2017-01-17T03:55:17.156Z,1022.76
2017-01-17T03:56:17.148Z,1022.77
2017-01-17T03:57:17.003Z,1022.74
2017-01-17T03:58:17.212Z,1022.8
2017-01-17T03:59:17.238Z,1022.73
2017-01-17T04:00:17.356Z,1022.75
2017-01-17T04:01:17.204Z,1022.73
2017-01-17T04:02:17.378Z,1022.71
2017-01-17T04:03:17.296Z,1022.72
2017-01-17T04:04:17.128Z,1022.71
2017-01-17T04:05:17.181Z,1022.71
2017-01-17T04:06:17.557Z,1022.68
2017-01-17T04:07:17.162Z,1022.68
2017-01-17T04:08:17.083Z,1022.73
2017-01-17T04:09:17.010Z,1022.7
2017-01-17T04:10:17.195Z,1022.73
2017-01-17T04:11:17.148Z,1022.71
2017-01-17T04:12:17.029Z,1022.69
2017-01-17T04:13:17.269Z,1022.71
2017-01-17T04:14:17.238Z,1022.72
2017-01-17T04:15:17.264Z,1022.71
2017-01-17T04:16:17.397Z,1022.66
2017-01-17T04:17:17.293Z,1022.69
2017-01-17T04:18:17.477Z,1022.71
2017-01-17T04:19:17.209Z,1022.71
2017-01-17T04:20:17.380Z,1022.7
2017-01-17T04:21:17.371Z,1022.68
2017-01-17T04:22:17.426Z,1022.71
2017-01-17T04:23:17.266Z,1022.7
2017-01-17T04:24:17.391Z,1022.72
2017-01-17T04:25:17.225Z,1022.71
2017-01-17T04:26:17.267Z,1022.69
2017-01-17T04:27:17.317Z,1022.72
2017-01-17T04:28:17.330Z,1022.77
2017-01-17T04:29:17.240Z,1022.74
2017-01-17T04:30:17.284Z,1022.77
2017-01-17T04:31:17.522Z,1022.76
2017-01-17T04:32:17.257Z,1022.79
2017-01-17T04:33:17.436Z,1022.74
2017-01-17T04:34:17.660Z,1022.77
2017-01-17T04:35:17.329Z,1022.84
2017-01-17T04:36:17.297Z,1022.84
2017-01-17T04:37:17.619Z,1022.8
2017-01-17T04:38:17.377Z,1022.81
2017-01-17T04:39:17.423Z,1022.79
2017-01-17T04:40:17.321Z,1022.75
2017-01-17T04:41:17.401Z,1022.78
2017-01-17T04:42:17.633Z,1022.79
2017-01-17T04:43:17.408Z,1022.8
2017-01-17T04:44:17.925Z,1022.78
2017-01-17T04:45:17.987Z,1022.78
2017-01-17T04:46:17.576Z,1022.77
2017-01-17T04:47:17.856Z,1022.79
2017-01-17T04:48:17.639Z,1022.79
2017-01-17T04:49:17.549Z,1022.77
2017-01-17T04:50:17.859Z,1022.8
2017-01-17T04:51:17.539Z,1022.78
2017-01-17T04:52:17.693Z,1022.81
2017-01-17T04:53:17.836Z,1022.8
2017-01-17T04:54:17.645Z,1022.81
2017-01-17T04:55:17.611Z,1022.79
2017-01-17T04:56:17.635Z,1022.8
2017-01-17T04:57:17.610Z,1022.73
2017-01-17T04:58:17.570Z,1022.8
2017-01-17T04:59:18.025Z,1022.81
2017-01-17T05:00:17.840Z,1022.78
2017-01-17T05:01:17.867Z,1022.78
2017-01-17T05:02:17.576Z,1022.84
2017-01-17T05:03:17.936Z,1022.88
2017-01-17T05:04:17.776Z,1022.89
2017-01-17T05:05:18.388Z,1022.89
2017-01-17T05:06:17.967Z,1022.86
2017-01-17T05:07:17.941Z,1022.89
2017-01-17T05:08:17.812Z,1022.93
2017-01-17T05:09:18.039Z,1022.95
2017-01-17T05:10:17.860Z,1022.94
2017-01-17T05:11:18.148Z,1022.96
2017-01-17T05:12:17.789Z,1022.93
2017-01-17T05:13:17.944Z,1022.93
2017-01-17T05:14:18.213Z,1022.98
2017-01-17T05:15:18.264Z,1022.97
2017-01-17T05:16:17.765Z,1022.99
2017-01-17T05:17:17.879Z,1022.99
2017-01-17T05:18:18.134Z,1022.98
2017-01-17T05:19:18.121Z,1023.03
2017-01-17T05:20:18.075Z,1023.03
2017-01-17T05:21:18.420Z,1023.04
2017-01-17T05:22:17.911Z,1023.06
2017-01-17T05:23:18.181Z,1023.11
2017-01-17T05:24:17.986Z,1023.08
2017-01-17T05:25:18.440Z,1023.08
2017-01-17T05:26:18.173Z,1023.16
2017-01-17T05:27:18.191Z,1023.13
2017-01-17T05:28:18.112Z,1023.15
2017-01-17T05:29:18.201Z,1023.13
2017-01-17T05:30:18.050Z,1023.12
2017-01-17T05:31:17.843Z,1023.1
2017-01-17T05:32:18.429Z,1023.09
2017-01-17T05:33:18.152Z,1023.06
2017-01-17T05:34:18.118Z,1023.09
2017-01-17T05:35:18.053Z,1023.1
2017-01-17T05:36:18.318Z,1023.11
2017-01-17T05:37:18.211Z,1023.17
2017-01-17T05:38:18.342Z,1023.19
2017-01-17T05:39:18.319Z,1023.2
2017-01-17T05:40:18.106Z,1023.17
2017-01-17T05:41:18.557Z,1023.2
2017-01-17T05:42:18.198Z,1023.16
2017-01-17T05:43:18.278Z,1023.14
2017-01-17T05:44:18.341Z,1023.18
2017-01-17T05:45:18.094Z,1023.19
2017-01-17T05:46:18.476Z,1023.22
2017-01-17T05:47:18.384Z,1023.27
2017-01-17T05:48:18.138Z,1023.23
2017-01-17T05:49:18.421Z,1023.24
2017-01-17T05:50:18.245Z,1023.24
2017-01-17T05:51:18.309Z,1023.26
2017-01-17T05:52:18.558Z,1023.25
2017-01-17T05:53:18.286Z,1023.27
2017-01-17T05:54:18.459Z,1023.29
2017-01-17T05:55:18.560Z,1023.26
2017-01-17T05:56:18.156Z,1023.32
2017-01-17T05:57:18.186Z,1023.31
2017-01-17T05:58:18.396Z,1023.28
2017-01-17T05:59:18.390Z,1023.21
2017-01-17T06:00:18.564Z,1023.2
2017-01-17T06:01:18.371Z,1023.21
2017-01-17T06:02:18.373Z,1023.25
2017-01-17T06:03:18.466Z,1023.26
2017-01-17T06:04:19.070Z,1023.28
2017-01-17T06:05:18.266Z,1023.32
2017-01-17T06:06:18.938Z,1023.28
2017-01-17T06:07:19.152Z,1023.3
2017-01-17T06:08:18.419Z,1023.28
2017-01-17T06:09:18.818Z,1023.32
2017-01-17T06:10:18.370Z,1023.31
2017-01-17T06:11:18.444Z,1023.42
2017-01-17T06:12:18.427Z,1023.43
2017-01-17T06:13:18.424Z,1023.41
2017-01-17T06:14:18.710Z,1023.43
2017-01-17T06:15:18.919Z,1023.44
2017-01-17T06:16:18.401Z,1023.46
2017-01-17T06:17:18.395Z,1023.45
2017-01-17T06:18:19.077Z,1023.43
2017-01-17T06:19:18.580Z,1023.47
2017-01-17T06:20:18.784Z,1023.47
2017-01-17T06:21:18.555Z,1023.5
2017-01-17T06:22:18.843Z,1023.45
2017-01-17T06:23:18.648Z,1023.47
2017-01-17T06:24:18.814Z,1023.47
2017-01-17T06:25:18.996Z,1023.5
2017-01-17T06:26:18.842Z,1023.55
2017-01-17T06:27:18.711Z,1023.58
2017-01-17T06:28:18.595Z,1023.56
2017-01-17T06:29:18.596Z,1023.58
2017-01-17T06:30:18.698Z,1023.59
2017-01-17T06:31:18.918Z,1023.6
2017-01-17T06:32:18.709Z,1023.61
2017-01-17T06:33:19.115Z,1023.7
2017-01-17T06:34:19.609Z,1023.73
2017-01-17T06:35:18.626Z,1023.69
2017-01-17T06:36:18.672Z,1023.68
2017-01-17T06:37:18.582Z,1023.71
2017-01-17T06:38:18.736Z,1023.7
2017-01-17T06:39:18.643Z,1023.72
2017-01-17T06:40:18.700Z,1023.66
2017-01-17T06:41:18.689Z,1023.66
2017-01-17T06:42:18.605Z,1023.65
2017-01-17T06:43:18.895Z,1023.7
2017-01-17T06:44:18.671Z,1023.79
2017-01-17T06:45:18.784Z,1023.74
2017-01-17T06:46:18.716Z,1023.77
2017-01-17T06:47:18.642Z,1023.75
2017-01-17T06:48:18.817Z,1023.76
2017-01-17T06:49:18.685Z,1023.78
2017-01-17T06:50:18.904Z,1023.77
2017-01-17T06:51:18.922Z,1023.71
2017-01-17T06:52:18.917Z,1023.73
2017-01-17T06:53:18.805Z,1023.75
2017-01-17T06:54:18.936Z,1023.71
2017-01-17T06:55:18.968Z,1023.7
2017-01-17T06:56:19.084Z,1023.7
2017-01-17T06:57:18.845Z,1023.71
2017-01-17T06:58:18.894Z,1023.73
2017-01-17T06:59:18.959Z,1023.7
2017-01-17T07:00:18.938Z,1023.72
2017-01-17T07:01:18.960Z,1023.8
2017-01-17T07:02:18.887Z,1023.78
2017-01-17T07:03:18.933Z,1023.8
2017-01-17T07:04:18.854Z,1023.85
2017-01-17T07:05:19.222Z,1023.87
2017-01-17T07:06:18.904Z,1023.84
2017-01-17T07:07:18.946Z,1023.85
2017-01-17T07:08:19.344Z,1023.81
2017-01-17T07:09:19.193Z,1023.85
2017-01-17T07:10:19.102Z,1023.83
2017-01-17T07:11:19.174Z,1023.82
2017-01-17T07:12:19.022Z,1023.85
2017-01-17T07:13:19.173Z,1023.91
2017-01-17T07:14:19.070Z,1023.93
2017-01-17T07:15:19.092Z,1023.96
2017-01-17T07:16:19.268Z,1023.98
2017-01-17T07:17:19.526Z,1023.98
2017-01-17T07:18:19.131Z,1023.96
2017-01-17T07:19:19.286Z,1023.97
2017-01-17T07:20:19.155Z,1023.96
2017-01-17T07:21:19.258Z,1023.98
2017-01-17T07:22:19.099Z,1023.97
2017-01-17T07:23:19.124Z,1023.98
2017-01-17T07:24:19.106Z,1023.98
2017-01-17T07:25:19.028Z,1024.02
2017-01-17T07:26:19.488Z,1024.08
2017-01-17T07:27:19.225Z,1024.07
2017-01-17T07:28:19.326Z,1024.05
2017-01-17T07:29:19.134Z,1024.11
2017-01-17T07:30:19.225Z,1024.11
2017-01-17T07:31:19.162Z,1024.16
2017-01-17T07:32:20.032Z,1024.13
2017-01-17T07:33:19.089Z,1024.17
2017-01-17T07:34:19.375Z,1024.2
2017-01-17T07:35:19.155Z,1024.18
2017-01-17T07:36:19.134Z,1024.23
2017-01-17T07:37:19.299Z,1024.24
2017-01-17T07:38:19.141Z,1024.2
2017-01-17T07:39:19.268Z,1024.24
2017-01-17T07:40:19.407Z,1024.24
2017-01-17T07:41:19.259Z,1024.26
2017-01-17T07:42:19.341Z,1024.29
2017-01-17T07:43:19.349Z,1024.34
2017-01-17T07:44:19.449Z,1024.36
2017-01-17T07:45:19.341Z,1024.39
2017-01-17T07:46:19.599Z,1024.35
2017-01-17T07:47:19.412Z,1024.39
2017-01-17T07:48:20.530Z,1024.43
2017-01-17T07:49:19.642Z,1024.46
2017-01-17T07:50:19.537Z,1024.42
2017-01-17T07:51:19.521Z,1024.47
2017-01-17T07:52:19.487Z,1024.49
2017-01-17T07:53:19.355Z,1024.46
2017-01-17T07:54:19.782Z,1024.52
2017-01-17T07:55:19.840Z,1024.51
2017-01-17T07:56:19.636Z,1024.48
2017-01-17T07:57:19.860Z,1024.5
2017-01-17T07:58:20.072Z,1024.54
2017-01-17T07:59:19.684Z,1024.48
2017-01-17T08:00:19.773Z,1024.51
2017-01-17T08:01:19.714Z,1024.55
2017-01-17T08:02:20.072Z,1024.57
2017-01-17T08:03:19.732Z,1024.54
2017-01-17T08:04:19.689Z,1024.54
2017-01-17T08:05:19.804Z,1024.51
2017-01-17T08:06:19.722Z,1024.59
2017-01-17T08:07:19.786Z,1024.58
2017-01-17T08:08:20.222Z,1024.62
2017-01-17T08:09:19.736Z,1024.59
2017-01-17T08:10:20.294Z,1024.6
2017-01-17T08:11:19.607Z,1024.59
2017-01-17T08:12:19.707Z,1024.58
2017-01-17T08:13:19.723Z,1024.6
2017-01-17T08:14:19.942Z,1024.58
2017-01-17T08:15:20.498Z,1024.6
2017-01-17T08:16:19.697Z,1024.66
2017-01-17T08:17:19.784Z,1024.7
2017-01-17T08:18:19.644Z,1024.68
2017-01-17T08:19:19.707Z,1024.65
2017-01-17T08:20:19.965Z,1024.64
2017-01-17T08:21:19.743Z,1024.62
2017-01-17T08:22:19.936Z,1024.67
2017-01-17T08:23:19.821Z,1024.64
2017-01-17T08:24:19.596Z,1024.67
2017-01-17T08:25:19.699Z,1024.66
2017-01-17T08:26:19.779Z,1024.65
2017-01-17T08:27:19.724Z,1024.67
2017-01-17T08:28:19.977Z,1024.68
2017-01-17T08:29:19.725Z,1024.67
2017-01-17T08:30:19.924Z,1024.63
2017-01-17T08:31:20.085Z,1024.71
2017-01-17T08:32:19.958Z,1024.7
2017-01-17T08:33:19.938Z,1024.69
2017-01-17T08:34:20.259Z,1024.71
2017-01-17T08:35:19.891Z,1024.7
2017-01-17T08:36:19.899Z,1024.7
2017-01-17T08:37:20.032Z,1024.68
2017-01-17T08:38:20.045Z,1024.66
2017-01-17T08:39:19.814Z,1024.66
2017-01-17T08:40:19.930Z,1024.67
2017-01-17T08:41:19.886Z,1024.72
2017-01-17T08:42:19.990Z,1024.71
2017-01-17T08:43:19.910Z,1024.75
2017-01-17T08:44:20.016Z,1024.76
2017-01-17T08:45:20.223Z,1024.82
2017-01-17T08:46:20.159Z,1024.82
2017-01-17T08:47:20.070Z,1024.8
2017-01-17T08:48:20.067Z,1024.84
2017-01-17T08:49:19.919Z,1024.86
2017-01-17T08:50:20.158Z,1024.88
2017-01-17T08:51:20.312Z,1024.9
2017-01-17T08:52:20.077Z,1024.91
2017-01-17T08:53:20.201Z,1024.92
2017-01-17T08:54:20.162Z,1024.9
2017-01-17T08:55:20.237Z,1024.93
2017-01-17T08:56:20.091Z,1024.93
2017-01-17T08:57:20.242Z,1024.95
2017-01-17T08:58:20.373Z,1024.92
2017-01-17T08:59:20.310Z,1024.96
2017-01-17T09:00:20.260Z,1024.95
2017-01-17T09:01:20.175Z,1024.93
2017-01-17T09:02:20.082Z,1024.93
2017-01-17T09:03:20.098Z,1024.98
2017-01-17T09:04:20.141Z,1024.98
2017-01-17T09:05:20.220Z,1024.97
2017-01-17T09:06:20.305Z,1024.98
2017-01-17T09:07:20.134Z,1025.02
2017-01-17T09:08:20.367Z,1025.04
2017-01-17T09:09:20.269Z,1025.05
2017-01-17T09:10:20.500Z,1025.03
2017-01-17T09:11:20.301Z,1025.03
2017-01-17T09:12:20.470Z,1025.1
2017-01-17T09:13:20.191Z,1025.1
2017-01-17T09:14:20.218Z,1025.12
2017-01-17T09:15:20.436Z,1025.07
2017-01-17T09:16:20.402Z,1025.09
2017-01-17T09:17:20.374Z,1025.07
2017-01-17T09:18:20.302Z,1025.08
2017-01-17T09:19:20.424Z,1025.07
2017-01-17T09:20:20.497Z,1025.06
2017-01-17T09:21:20.249Z,1025.04
2017-01-17T09:22:20.419Z,1025.06
2017-01-17T09:23:20.515Z,1025.09
2017-01-17T09:24:20.398Z,1025.12
2017-01-17T09:25:20.502Z,1025.14
2017-01-17T09:26:20.469Z,1025.14
2017-01-17T09:27:20.656Z,1025.15
2017-01-17T09:28:20.805Z,1025.2
2017-01-17T09:29:20.427Z,1025.17
2017-01-17T09:30:20.533Z,1025.18
2017-01-17T09:31:20.515Z,1025.21
2017-01-17T09:32:20.838Z,1025.19
2017-01-17T09:33:20.495Z,1025.24
2017-01-17T09:34:20.541Z,1025.21
2017-01-17T09:35:20.506Z,1025.19
2017-01-17T09:36:20.552Z,1025.19
2017-01-17T09:37:20.551Z,1025.26
2017-01-17T09:38:20.623Z,1025.22
2017-01-17T09:39:20.781Z,1025.24
2017-01-17T09:40:20.730Z,1025.27
2017-01-17T09:41:21.001Z,1025.27
2017-01-17T09:42:20.726Z,1025.24
2017-01-17T09:43:20.654Z,1025.26
2017-01-17T09:44:20.596Z,1025.27
2017-01-17T09:45:20.977Z,1025.29
2017-01-17T09:46:20.760Z,1025.33
2017-01-17T09:47:20.853Z,1025.35
2017-01-17T09:48:20.841Z,1025.35
2017-01-17T09:49:20.733Z,1025.37
2017-01-17T09:50:20.705Z,1025.38
2017-01-17T09:51:20.695Z,1025.37
2017-01-17T09:52:20.720Z,1025.43
2017-01-17T09:53:20.828Z,1025.45
2017-01-17T09:54:20.927Z,1025.42
2017-01-17T09:55:21.084Z,1025.46
2017-01-17T09:56:21.021Z,1025.45
2017-01-17T09:57:20.810Z,1025.47
2017-01-17T09:58:21.641Z,1025.51
2017-01-17T09:59:20.760Z,1025.5
2017-01-17T10:00:20.859Z,1025.49
2017-01-17T10:01:20.843Z,1025.46
2017-01-17T10:02:20.902Z,1025.51
2017-01-17T10:03:20.752Z,1025.47
2017-01-17T10:04:21.088Z,1025.43
2017-01-17T10:05:21.015Z,1025.49
2017-01-17T10:06:21.180Z,1025.45
2017-01-17T10:07:21.115Z,1025.46
2017-01-17T10:08:20.939Z,1025.46
2017-01-17T10:09:21.025Z,1025.48
2017-01-17T10:10:21.181Z,1025.48
2017-01-17T10:11:21.061Z,1025.48
2017-01-17T10:12:20.926Z,1025.52
2017-01-17T10:13:21.038Z,1025.49
2017-01-17T10:14:21.213Z,1025.53
2017-01-17T10:15:20.982Z,1025.56
2017-01-17T10:16:21.572Z,1025.47
2017-01-17T10:17:20.898Z,1025.45
2017-01-17T10:18:20.970Z,1025.46
2017-01-17T10:19:21.020Z,1025.43
2017-01-17T10:20:20.998Z,1025.42
2017-01-17T10:21:21.307Z,1025.48
2017-01-17T10:22:21.351Z,1025.43
2017-01-17T10:23:21.189Z,1025.43
2017-01-17T10:24:21.403Z,1025.42
2017-01-17T10:25:21.029Z,1025.43
2017-01-17T10:26:21.227Z,1025.4
2017-01-17T10:27:21.064Z,1025.47
2017-01-17T10:28:21.270Z,1025.45
2017-01-17T10:29:21.297Z,1025.51
2017-01-17T10:30:21.402Z,1025.49
2017-01-17T10:31:21.195Z,1025.54
2017-01-17T10:32:21.298Z,1025.54
2017-01-17T10:33:21.203Z,1025.54
2017-01-17T10:34:21.400Z,1025.51
2017-01-17T10:35:21.160Z,1025.54
2017-01-17T10:36:21.426Z,1025.5
2017-01-17T10:37:21.385Z,1025.55
2017-01-17T10:38:21.638Z,1025.53
2017-01-17T10:39:21.431Z,1025.51
2017-01-17T10:40:21.362Z,1025.54
2017-01-17T10:41:21.411Z,1025.55
2017-01-17T10:42:21.643Z,1025.55
2017-01-17T10:43:21.500Z,1025.57
2017-01-17T10:44:21.261Z,1025.62
2017-01-17T10:45:21.271Z,1025.6
2017-01-17T10:46:21.536Z,1025.64
2017-01-17T10:47:21.184Z,1025.66
2017-01-17T10:48:21.934Z,1025.67
2017-01-17T10:49:21.323Z,1025.72
2017-01-17T10:50:21.529Z,1025.67
2017-01-17T10:51:21.529Z,1025.69
2017-01-17T10:52:22.080Z,1025.65
2017-01-17T10:53:22.184Z,1025.68
2017-01-17T10:54:21.598Z,1025.67
2017-01-17T10:55:21.543Z,1025.65
2017-01-17T10:56:21.892Z,1025.69
2017-01-17T10:57:21.421Z,1025.66
2017-01-17T10:58:21.821Z,1025.66
2017-01-17T10:59:21.427Z,1025.68
2017-01-17T11:00:21.499Z,1025.68
2017-01-17T11:01:21.562Z,1025.71
2017-01-17T11:02:21.450Z,1025.71
2017-01-17T11:03:21.594Z,1025.75
2017-01-17T11:04:21.580Z,1025.73
2017-01-17T11:05:21.743Z,1025.77
2017-01-17T11:06:21.762Z,1025.79
2017-01-17T11:07:21.449Z,1025.81
2017-01-17T11:08:21.503Z,1025.83
2017-01-17T11:09:22.035Z,1025.88
2017-01-17T11:10:21.739Z,1025.82
2017-01-17T11:11:21.679Z,1025.86
2017-01-17T11:12:21.643Z,1025.84
2017-01-17T11:13:21.930Z,1025.85
2017-01-17T11:14:21.979Z,1025.87
2017-01-17T11:15:21.705Z,1025.85
2017-01-17T11:16:21.942Z,1025.91
2017-01-17T11:17:21.752Z,1025.92
2017-01-17T11:18:22.160Z,1025.93
2017-01-17T11:19:21.924Z,1025.97
2017-01-17T11:20:21.735Z,1025.92
2017-01-17T11:21:22.026Z,1025.94
2017-01-17T11:22:22.172Z,1025.93
2017-01-17T11:23:22.074Z,1025.91
2017-01-17T11:24:21.898Z,1025.88
2017-01-17T11:25:22.115Z,1025.92
2017-01-17T11:26:21.856Z,1025.91
2017-01-17T11:27:21.863Z,1025.94
2017-01-17T11:28:22.163Z,1025.97
2017-01-17T11:29:22.459Z,1025.95
2017-01-17T11:30:21.824Z,1025.95
2017-01-17T11:31:22.457Z,1025.93
2017-01-17T11:32:21.884Z,1025.93
2017-01-17T11:33:21.842Z,1025.92
2017-01-17T11:34:21.945Z,1025.98
2017-01-17T11:35:21.954Z,1025.94
2017-01-17T11:36:22.013Z,1025.95
2017-01-17T11:37:22.098Z,1025.95
2017-01-17T11:38:22.036Z,1025.97
2017-01-17T11:39:21.917Z,1025.93
2017-01-17T11:40:21.872Z,1025.98
2017-01-17T11:41:22.115Z,1025.95
2017-01-17T11:42:22.114Z,1026
2017-01-17T11:43:22.024Z,1026
2017-01-17T11:44:22.193Z,1025.98
2017-01-17T11:45:22.109Z,1025.96
2017-01-17T11:46:22.203Z,1025.96
2017-01-17T11:47:22.360Z,1025.99
2017-01-17T11:48:22.231Z,1026
2017-01-17T11:49:22.058Z,1026
2017-01-17T11:50:22.839Z,1025.99
2017-01-17T11:51:22.206Z,1025.98
2017-01-17T11:52:22.187Z,1026
2017-01-17T11:53:22.097Z,1025.99
2017-01-17T11:54:22.076Z,1026.04
2017-01-17T11:55:22.206Z,1026.01
2017-01-17T11:56:22.242Z,1026.01
2017-01-17T11:57:22.412Z,1026
2017-01-17T11:58:22.521Z,1026.03
2017-01-17T11:59:22.367Z,1026.02
2017-01-17T12:00:22.206Z,1025.98
2017-01-17T12:01:22.643Z,1026.04
2017-01-17T12:02:22.635Z,1026
2017-01-17T12:03:22.440Z,1025.98
2017-01-17T12:04:22.361Z,1026.04
2017-01-17T12:05:22.437Z,1026.02
2017-01-17T12:06:22.359Z,1025.97
2017-01-17T12:07:22.658Z,1025.99
2017-01-17T12:08:22.435Z,1026.02